This is the latest recevied weather packets stored in our database for station/object K2ATL. If no packets are shown the sender has not sent any weather packets the latest 10 day(s).
| Time | Temp. | Humidity | Pressure | Rain* | Wind** | Luminosity | Snow |
|---|---|---|---|---|---|---|---|
| 1777237315 | 23.89° C | 53% | 1097.6 hPa | 0 mm | - | 597 W/m² | - |
| 1777237012 | 26.67° C | 48% | 1097.5 hPa | 0 mm | - | 618 W/m² | - |
| 1777236709 | 25.56° C | 46% | 1097.7 hPa | 0 mm | - | 612 W/m² | - |
| 1777236409 | 25.56° C | 48% | 1097.6 hPa | 0 mm | - | 645 W/m² | - |
| 1777236105 | 25° C | 48% | 1097.7 hPa | 0 mm | - | 642 W/m² | - |
| 1777235801 | 23.33° C | 51% | 1097.6 hPa | 0 mm | - | 666 W/m² | - |
| 1777235499 | 23.33° C | 54% | 1097.6 hPa | 0 mm | - | 682 W/m² | - |
| 1777235195 | 23.89° C | 54% | 1097.7 hPa | 0 mm | - | 679 W/m² | - |
| 1777234891 | 23.89° C | 51% | 1097.5 hPa | 0 mm | - | 723 W/m² | - |
| 1777234587 | 23.89° C | 45% | 1097.5 hPa | 0 mm | - | 730 W/m² | - |
| 1777234287 | 25° C | 41% | 1097.6 hPa | 0 mm | - | 741 W/m² | - |
| 1777233984 | 24.44° C | 45% | 1097.6 hPa | 0 mm | - | 750 W/m² | - |
| 1777233681 | 25.56° C | 46% | 1097.8 hPa | 0 mm | - | 758 W/m² | - |
| 1777233381 | 25° C | 45% | 1097.6 hPa | 0 mm | - | 767 W/m² | - |
| 1777233076 | 24.44° C | 47% | 1097.7 hPa | 0 mm | - | 780 W/m² | - |
| 1777232773 | 23.33° C | 44% | 1097.9 hPa | 0 mm | - | 795 W/m² | - |
| 1777232471 | 23.89° C | 45% | 1097.7 hPa | 0 mm | - | 805 W/m² | - |
| 1777232168 | 23.89° C | 46% | 1097.9 hPa | 0 mm | - | 820 W/m² | - |
| 1777231865 | 23.89° C | 47% | 1098.1 hPa | 0 mm | - | 835 W/m² | - |
| 1777231561 | 23.89° C | 46% | 1097.9 hPa | 0 mm | - | 848 W/m² | - |
| 1777231258 | 23.33° C | 46% | 1098 hPa | 0 mm | - | 848 W/m² | - |
| 1777230954 | 22.78° C | 49% | 1098.1 hPa | 0 mm | - | 864 W/m² | - |
| 1777230650 | 23.89° C | 46% | 1098.3 hPa | 0 mm | - | 881 W/m² | - |
| 1777230345 | 22.78° C | 50% | 1098.3 hPa | 0 mm | - | 876 W/m² | - |
| 1777230042 | 24.44° C | 44% | 1098.3 hPa | 0 mm | - | 899 W/m² | - |
* Rain latest hour (hover to see other rain measurements)
** Current wind speed in m/s (hover to see current wind gust speed)